Mars Hill, Maine
Current Conditions -  °F | °C
As of 12:35 PM on Monday 22 Dec 2014 (Local Time) from KPQI Reporting Station
Overcast Overcast  
Wind Chill: 20°   Ceiling: 1100
Heat Index: 27°   Visibility: 10mi
Dew Point: 21°   Wind: 6mph
Humidity: 80%   Direction: 110°ESE
Pressure: 30.38"   Gusts: NA
Location:  46.52°N, 67.87°W
Report Text: KPQI 221735Z AUTO 11005KT 10SM OVC011 M03/M06 A3038 RMK AO1
Loading
Personal Weather Stations






























Interactive Weather Map New forecast layout! Learn more

10-Day Weather Forecast

Advertisements
Track Severe Weather on mobile